PWSweather.com
Personal Weather Stations
Station Observations

ChardChardGB

Lat: 50.877408, Lon: -2.94964741

Elevation: 341

Station Type: WS3083

http://www.merriott-astro.co.uk/weather/index.htm

High Low Average
Temperature 56.8°F13.8°C 46.2°F7.9°C 49.4°F9.7°C
Dew Point 45.9°F7.7°C 40.1°F4.5°C 43.6°F6.4°C
Winds 12.3 mph 19.8 kmh Calm Calm 3.0 mph SSE4.8 kmh SSE
Wind Gusts 16.8 mph27.0 kmh -- 6.0 mph9.7 kmh
Humidity 93% 61% 81%
Pressure 29.41 in995.9 mb 29.16 in987.5 mb -
Precipitation 0.12 in3.0 mm - -
Hour Temp Dew Point Humidity Winds Wind Gusts Pressure Precip Precip Rate Daily Precip Total
12:00 AM 48.0°F8.9°C 43.7°F6.5°C 85% Calm Calm -- 29.32 in992.9 mb 0.00 in0.0 mm 0.00 in0.0 mm 0.00 in0.0 mm
12:10 AM 48.4°F9.1°C 44.4°F6.9°C 86% Calm Calm -- 29.33 in993.2 mb 0.00 in0.0 mm 0.00 in0.0 mm 0.00 in0.0 mm
12:20 AM 48.6°F9.2°C 44.3°F6.8°C 85% 5.8 mph NW9.3 kmh NW 8.3 mph13.4 kmh 29.33 in993.2 mb 0.00 in0.0 mm 0.00 in0.0 mm 0.00 in0.0 mm
12:30 AM 48.6°F9.2°C 44.0°F6.7°C 84% 7.1 mph NW11.4 kmh NW 8.3 mph13.4 kmh 29.33 in993.2 mb 0.00 in0.0 mm 0.00 in0.0 mm 0.00 in0.0 mm
12:40 AM 48.6°F9.2°C 43.3°F6.3°C 82% 7.6 mph WNW12.2 kmh WNW 10.7 mph17.2 kmh 29.34 in993.6 mb 0.01 in0.3 mm 0.06 in1.5 mm 0.01 in0.3 mm
12:50 AM 48.4°F9.1°C 42.8°F6.0°C 81% 7.0 mph NW11.3 kmh NW 10.7 mph17.2 kmh 29.34 in993.6 mb 0.01 in0.3 mm 0.00 in0.0 mm 0.01 in0.3 mm
01:00 AM 48.2°F9.0°C 42.6°F5.9°C 81% 6.6 mph NW10.6 kmh NW 8.3 mph13.4 kmh 29.34 in993.6 mb 0.01 in0.3 mm 0.00 in0.0 mm 0.01 in0.3 mm
01:10 AM 48.2°F9.0°C 42.6°F5.9°C 81% 5.3 mph WNW8.5 kmh WNW 9.2 mph14.8 kmh 29.34 in993.6 mb 0.01 in0.3 mm 0.00 in0.0 mm 0.01 in0.3 mm
01:20 AM 48.0°F8.9°C 42.5°F5.8°C 81% 4.3 mph NNW6.9 kmh NNW 6.0 mph9.7 kmh 29.34 in993.6 mb 0.01 in0.3 mm 0.00 in0.0 mm 0.01 in0.3 mm
01:30 AM 47.8°F8.8°C 42.3°F5.7°C 81% 3.6 mph NW5.8 kmh NW 6.9 mph11.1 kmh 29.34 in993.6 mb 0.01 in0.3 mm 0.00 in0.0 mm 0.01 in0.3 mm
01:40 AM 47.7°F8.7°C 42.4°F5.8°C 82% 0.1 mph N0.2 kmh N 3.1 mph5.0 kmh 29.34 in993.6 mb 0.00 in0.0 mm 0.00 in0.0 mm 0.01 in0.3 mm
01:50 AM 47.5°F8.6°C 42.3°F5.7°C 82% 0.7 mph NW1.1 kmh NW 3.1 mph5.0 kmh 29.34 in993.6 mb 0.00 in0.0 mm 0.00 in0.0 mm 0.01 in0.3 mm
02:00 AM 47.5°F8.6°C 42.3°F5.7°C 82% Calm Calm -- 29.35 in993.9 mb 0.00 in0.0 mm 0.00 in0.0 mm 0.01 in0.3 mm
02:10 AM 48.0°F8.9°C 43.1°F6.2°C 83% 1.6 mph NW2.6 kmh NW 6.9 mph11.1 kmh 29.35 in993.9 mb 0.00 in0.0 mm 0.00 in0.0 mm 0.01 in0.3 mm
02:20 AM 48.7°F9.3°C 43.8°F6.6°C 83% 4.7 mph NW7.6 kmh NW 13.0 mph20.9 kmh 29.34 in993.6 mb 0.00 in0.0 mm 0.00 in0.0 mm 0.01 in0.3 mm
02:30 AM 48.9°F9.4°C 44.0°F6.7°C 83% 5.3 mph NW8.5 kmh NW 13.0 mph20.9 kmh 29.34 in993.6 mb 0.00 in0.0 mm 0.00 in0.0 mm 0.01 in0.3 mm
02:40 AM 48.9°F9.4°C 43.7°F6.5°C 82% 4.5 mph NNW7.2 kmh NNW 9.2 mph14.8 kmh 29.35 in993.9 mb 0.00 in0.0 mm 0.00 in0.0 mm 0.01 in0.3 mm
02:50 AM 48.7°F9.3°C 43.2°F6.2°C 81% 4.3 mph N6.9 kmh N 10.7 mph17.2 kmh 29.34 in993.6 mb 0.00 in0.0 mm 0.00 in0.0 mm 0.01 in0.3 mm
03:00 AM 48.2°F9.0°C 42.6°F5.9°C 81% 2.2 mph NE3.5 kmh NE 7.6 mph12.2 kmh 29.34 in993.6 mb 0.00 in0.0 mm 0.00 in0.0 mm 0.01 in0.3 mm
03:10 AM 48.6°F9.2°C 43.3°F6.3°C 82% 5.5 mph NE8.9 kmh NE 9.8 mph15.8 kmh 29.34 in993.6 mb 0.00 in0.0 mm 0.00 in0.0 mm 0.01 in0.3 mm
03:20 AM 48.7°F9.3°C 43.8°F6.6°C 83% 2.3 mph NW3.7 kmh NW 5.4 mph8.7 kmh 29.34 in993.6 mb 0.00 in0.0 mm 0.00 in0.0 mm 0.01 in0.3 mm
03:30 AM 48.7°F9.3°C 43.8°F6.6°C 83% 1.2 mph NW1.9 kmh NW 6.0 mph9.7 kmh 29.34 in993.6 mb 0.00 in0.0 mm 0.00 in0.0 mm 0.01 in0.3 mm
03:40 AM 48.9°F9.4°C 44.0°F6.7°C 83% 0.8 mph NNE1.3 kmh NNE 6.9 mph11.1 kmh 29.34 in993.6 mb 0.00 in0.0 mm 0.00 in0.0 mm 0.01 in0.3 mm
03:50 AM 49.1°F9.5°C 44.2°F6.8°C 83% 5.4 mph NW8.7 kmh NW 7.6 mph12.2 kmh 29.35 in993.9 mb 0.00 in0.0 mm 0.00 in0.0 mm 0.01 in0.3 mm
04:00 AM 49.3°F9.6°C 44.3°F6.8°C 83% 3.4 mph NW5.5 kmh NW 6.9 mph11.1 kmh 29.34 in993.6 mb 0.00 in0.0 mm 0.00 in0.0 mm 0.01 in0.3 mm
04:10 AM 49.3°F9.6°C 44.3°F6.8°C 83% 2.8 mph NW4.5 kmh NW 6.9 mph11.1 kmh 29.36 in994.2 mb 0.00 in0.0 mm 0.00 in0.0 mm 0.01 in0.3 mm
04:20 AM 49.5°F9.7°C 44.5°F6.9°C 83% 5.3 mph NW8.5 kmh NW 7.6 mph12.2 kmh 29.36 in994.2 mb 0.00 in0.0 mm 0.00 in0.0 mm 0.01 in0.3 mm
04:30 AM 49.5°F9.7°C 44.2°F6.8°C 82% 2.4 mph WNW3.9 kmh WNW 7.6 mph12.2 kmh 29.36 in994.2 mb 0.00 in0.0 mm 0.00 in0.0 mm 0.01 in0.3 mm
04:40 AM 49.3°F9.6°C 44.0°F6.7°C 82% Calm Calm -- 29.37 in994.6 mb 0.00 in0.0 mm 0.00 in0.0 mm 0.01 in0.3 mm
04:50 AM 49.3°F9.6°C 44.0°F6.7°C 82% Calm Calm -- 29.36 in994.2 mb 0.00 in0.0 mm 0.00 in0.0 mm 0.01 in0.3 mm
05:00 AM 49.3°F9.6°C 44.0°F6.7°C 82% Calm Calm -- 29.37 in994.6 mb 0.00 in0.0 mm 0.00 in0.0 mm 0.01 in0.3 mm
05:10 AM 49.1°F9.5°C 43.8°F6.6°C 82% Calm Calm -- 29.36 in994.2 mb 0.00 in0.0 mm 0.00 in0.0 mm 0.01 in0.3 mm
05:20 AM 48.9°F9.4°C 44.0°F6.7°C 83% Calm Calm -- 29.37 in994.6 mb 0.00 in0.0 mm 0.00 in0.0 mm 0.01 in0.3 mm
05:30 AM 48.9°F9.4°C 44.0°F6.7°C 83% Calm Calm -- 29.38 in994.9 mb 0.00 in0.0 mm 0.00 in0.0 mm 0.01 in0.3 mm
05:40 AM 48.9°F9.4°C 44.0°F6.7°C 83% Calm Calm -- 29.37 in994.6 mb 0.00 in0.0 mm 0.00 in0.0 mm 0.01 in0.3 mm
05:50 AM 48.6°F9.2°C 43.6°F6.4°C 83% Calm Calm -- 29.38 in994.9 mb 0.00 in0.0 mm 0.00 in0.0 mm 0.01 in0.3 mm
06:00 AM 48.2°F9.0°C 43.3°F6.3°C 83% Calm Calm -- 29.37 in994.6 mb 0.00 in0.0 mm 0.00 in0.0 mm 0.01 in0.3 mm
06:10 AM 47.5°F8.6°C 42.6°F5.9°C 83% Calm Calm -- 29.38 in994.9 mb 0.00 in0.0 mm 0.00 in0.0 mm 0.01 in0.3 mm
06:20 AM 47.1°F8.4°C 42.5°F5.8°C 84% Calm Calm -- 29.37 in994.6 mb 0.00 in0.0 mm 0.00 in0.0 mm 0.01 in0.3 mm
06:30 AM 46.6°F8.1°C 42.0°F5.6°C 84% Calm Calm -- 29.37 in994.6 mb 0.00 in0.0 mm 0.00 in0.0 mm 0.01 in0.3 mm
06:40 AM 46.2°F7.9°C 41.7°F5.4°C 84% Calm Calm -- 29.38 in994.9 mb 0.00 in0.0 mm 0.00 in0.0 mm 0.01 in0.3 mm
06:50 AM 46.2°F7.9°C 42.0°F5.6°C 85% Calm Calm -- 29.37 in994.6 mb 0.00 in0.0 mm 0.00 in0.0 mm 0.01 in0.3 mm
07:00 AM 46.2°F7.9°C 42.0°F5.6°C 85% Calm Calm -- 29.38 in994.9 mb 0.00 in0.0 mm 0.00 in0.0 mm 0.01 in0.3 mm
07:10 AM 46.2°F7.9°C 42.3°F5.7°C 86% Calm Calm -- 29.39 in995.3 mb 0.00 in0.0 mm 0.00 in0.0 mm 0.01 in0.3 mm
07:20 AM 46.6°F8.1°C 42.9°F6.1°C 87% 0.1 mph NW0.2 kmh NW 2.2 mph3.5 kmh 29.39 in995.3 mb 0.00 in0.0 mm 0.00 in0.0 mm 0.01 in0.3 mm
07:30 AM 47.1°F8.4°C 43.8°F6.6°C 88% Calm Calm -- 29.39 in995.3 mb 0.00 in0.0 mm 0.00 in0.0 mm 0.01 in0.3 mm
07:40 AM 47.5°F8.6°C 44.4°F6.9°C 89% Calm Calm -- 29.39 in995.3 mb 0.00 in0.0 mm 0.00 in0.0 mm 0.01 in0.3 mm
07:50 AM 47.7°F8.7°C 44.6°F7.0°C 89% 0.5 mph NW0.8 kmh NW 3.8 mph6.1 kmh 29.40 in995.6 mb 0.00 in0.0 mm 0.00 in0.0 mm 0.01 in0.3 mm
08:00 AM 47.8°F8.8°C 44.8°F7.1°C 89% 2.4 mph NW3.9 kmh NW 6.0 mph9.7 kmh 29.40 in995.6 mb 0.00 in0.0 mm 0.00 in0.0 mm 0.01 in0.3 mm
08:10 AM 48.0°F8.9°C 44.6°F7.0°C 88% Calm Calm -- 29.40 in995.6 mb 0.00 in0.0 mm 0.00 in0.0 mm 0.01 in0.3 mm
08:20 AM 48.2°F9.0°C 44.8°F7.1°C 88% Calm Calm -- 29.40 in995.6 mb 0.00 in0.0 mm 0.00 in0.0 mm 0.01 in0.3 mm
08:30 AM 48.6°F9.2°C 44.9°F7.2°C 87% Calm Calm -- 29.40 in995.6 mb 0.00 in0.0 mm 0.00 in0.0 mm 0.01 in0.3 mm
08:40 AM 48.6°F9.2°C 44.6°F7.0°C 86% 0.1 mph W0.2 kmh W 0.7 mph1.1 kmh 29.40 in995.6 mb 0.00 in0.0 mm 0.00 in0.0 mm 0.01 in0.3 mm
08:50 AM 48.6°F9.2°C 44.6°F7.0°C 86% Calm Calm -- 29.41 in995.9 mb 0.00 in0.0 mm 0.00 in0.0 mm 0.01 in0.3 mm
09:00 AM 48.6°F9.2°C 44.6°F7.0°C 86% Calm Calm -- 29.41 in995.9 mb 0.00 in0.0 mm 0.00 in0.0 mm 0.01 in0.3 mm
09:10 AM 48.6°F9.2°C 44.6°F7.0°C 86% Calm Calm -- 29.40 in995.6 mb 0.00 in0.0 mm 0.00 in0.0 mm 0.01 in0.3 mm
09:20 AM 48.9°F9.4°C 44.9°F7.2°C 86% Calm Calm -- 29.41 in995.9 mb 0.00 in0.0 mm 0.00 in0.0 mm 0.01 in0.3 mm
09:30 AM 48.9°F9.4°C 44.9°F7.2°C 86% Calm Calm -- 29.41 in995.9 mb 0.00 in0.0 mm 0.00 in0.0 mm 0.01 in0.3 mm
09:40 AM 49.1°F9.5°C 45.4°F7.4°C 87% Calm Calm -- 29.41 in995.9 mb 0.00 in0.0 mm 0.00 in0.0 mm 0.01 in0.3 mm
09:50 AM 49.3°F9.6°C 45.3°F7.4°C 86% Calm Calm -- 29.41 in995.9 mb 0.00 in0.0 mm 0.00 in0.0 mm 0.01 in0.3 mm
10:00 AM 49.6°F9.8°C 45.6°F7.6°C 86% Calm Calm -- 29.41 in995.9 mb 0.00 in0.0 mm 0.00 in0.0 mm 0.01 in0.3 mm
10:10 AM 49.8°F9.9°C 45.2°F7.3°C 84% 1.6 mph WSW2.6 kmh WSW 3.8 mph6.1 kmh 29.41 in995.9 mb 0.00 in0.0 mm 0.00 in0.0 mm 0.01 in0.3 mm
10:20 AM 50.2°F10.1°C 45.2°F7.3°C 83% 0.3 mph W0.5 kmh W 2.2 mph3.5 kmh 29.41 in995.9 mb 0.00 in0.0 mm 0.00 in0.0 mm 0.01 in0.3 mm
10:30 AM 50.5°F10.3°C 45.3°F7.4°C 82% 0.8 mph WSW1.3 kmh WSW 3.1 mph5.0 kmh 29.41 in995.9 mb 0.00 in0.0 mm 0.00 in0.0 mm 0.01 in0.3 mm
10:40 AM 51.3°F10.7°C 45.6°F7.6°C 81% 0.4 mph SW0.6 kmh SW 2.2 mph3.5 kmh 29.41 in995.9 mb 0.00 in0.0 mm 0.00 in0.0 mm 0.01 in0.3 mm
10:50 AM 51.6°F10.9°C 45.7°F7.6°C 80% Calm Calm -- 29.40 in995.6 mb 0.00 in0.0 mm 0.00 in0.0 mm 0.01 in0.3 mm
11:00 AM 50.9°F10.5°C 44.3°F6.8°C 78% 2.5 mph SSW4.0 kmh SSW 6.0 mph9.7 kmh 29.40 in995.6 mb 0.00 in0.0 mm 0.00 in0.0 mm 0.01 in0.3 mm
11:10 AM 50.9°F10.5°C 44.6°F7.0°C 79% 0.8 mph SW1.3 kmh SW 4.5 mph7.2 kmh 29.40 in995.6 mb 0.00 in0.0 mm 0.00 in0.0 mm 0.01 in0.3 mm
11:20 AM 50.9°F10.5°C 45.0°F7.2°C 80% Calm Calm -- 29.39 in995.3 mb 0.00 in0.0 mm 0.00 in0.0 mm 0.01 in0.3 mm
11:30 AM 51.4°F10.8°C 45.5°F7.5°C 80% Calm Calm -- 29.40 in995.6 mb 0.00 in0.0 mm 0.00 in0.0 mm 0.01 in0.3 mm
11:40 AM 51.8°F11.0°C 45.5°F7.5°C 79% Calm Calm -- 29.39 in995.3 mb 0.00 in0.0 mm 0.00 in0.0 mm 0.01 in0.3 mm
11:50 AM 52.0°F11.1°C 45.7°F7.6°C 79% 0.5 mph SE0.8 kmh SE 3.1 mph5.0 kmh 29.39 in995.3 mb 0.00 in0.0 mm 0.00 in0.0 mm 0.01 in0.3 mm
12:00 PM 52.0°F11.1°C 45.3°F7.4°C 78% 0.2 mph SE0.3 kmh SE 1.6 mph2.6 kmh 29.39 in995.3 mb 0.00 in0.0 mm 0.00 in0.0 mm 0.01 in0.3 mm
12:10 PM 52.5°F11.4°C 45.9°F7.7°C 78% Calm Calm -- 29.39 in995.3 mb 0.00 in0.0 mm 0.00 in0.0 mm 0.01 in0.3 mm
12:20 PM 52.0°F11.1°C 44.7°F7.1°C 76% 4.5 mph SSW7.2 kmh SSW 7.6 mph12.2 kmh 29.39 in995.3 mb 0.00 in0.0 mm 0.00 in0.0 mm 0.01 in0.3 mm
12:30 PM 52.7°F11.5°C 45.4°F7.4°C 76% 1.7 mph SW2.7 kmh SW 5.4 mph8.7 kmh 29.39 in995.3 mb 0.00 in0.0 mm 0.00 in0.0 mm 0.01 in0.3 mm
12:40 PM 53.1°F11.7°C 45.0°F7.2°C 74% 2.4 mph SW3.9 kmh SW 4.5 mph7.2 kmh 29.39 in995.3 mb 0.00 in0.0 mm 0.00 in0.0 mm 0.01 in0.3 mm
12:50 PM 53.1°F11.7°C 45.0°F7.2°C 74% Calm Calm -- 29.39 in995.3 mb 0.00 in0.0 mm 0.00 in0.0 mm 0.01 in0.3 mm
01:00 PM 53.1°F11.7°C 44.6°F7.0°C 73% 0.6 mph ESE1.0 kmh ESE 3.1 mph5.0 kmh 29.38 in994.9 mb 0.00 in0.0 mm 0.00 in0.0 mm 0.01 in0.3 mm
01:10 PM 52.9°F11.6°C 44.1°F6.7°C 72% 1.9 mph S3.1 kmh S 5.4 mph8.7 kmh 29.38 in994.9 mb 0.00 in0.0 mm 0.00 in0.0 mm 0.01 in0.3 mm
01:20 PM 52.5°F11.4°C 43.8°F6.6°C 72% 3.0 mph SSW4.8 kmh SSW 6.0 mph9.7 kmh 29.38 in994.9 mb 0.00 in0.0 mm 0.00 in0.0 mm 0.01 in0.3 mm
01:30 PM 52.3°F11.3°C 44.3°F6.8°C 74% 5.2 mph SSW8.4 kmh SSW 7.6 mph12.2 kmh 29.37 in994.6 mb 0.00 in0.0 mm 0.00 in0.0 mm 0.01 in0.3 mm
01:40 PM 52.9°F11.6°C 45.2°F7.3°C 75% 6.2 mph S10.0 kmh S 9.2 mph14.8 kmh 29.37 in994.6 mb 0.00 in0.0 mm 0.00 in0.0 mm 0.01 in0.3 mm
01:50 PM 54.0°F12.2°C 45.5°F7.5°C 73% 4.8 mph SSW7.7 kmh SSW 9.8 mph15.8 kmh 29.37 in994.6 mb 0.00 in0.0 mm 0.00 in0.0 mm 0.01 in0.3 mm
02:00 PM 55.0°F12.8°C 45.4°F7.4°C 70% 3.4 mph S5.5 kmh S 6.9 mph11.1 kmh 29.37 in994.6 mb 0.00 in0.0 mm 0.00 in0.0 mm 0.01 in0.3 mm
02:10 PM 55.8°F13.2°C 45.0°F7.2°C 67% 2.0 mph SSE3.2 kmh SSE 4.5 mph7.2 kmh 29.36 in994.2 mb 0.00 in0.0 mm 0.00 in0.0 mm 0.01 in0.3 mm
02:20 PM 56.8°F13.8°C 45.2°F7.3°C 65% 1.7 mph SSE2.7 kmh SSE 6.0 mph9.7 kmh 29.35 in993.9 mb 0.00 in0.0 mm 0.00 in0.0 mm 0.01 in0.3 mm
02:30 PM 56.8°F13.8°C 44.0°F6.7°C 62% 4.8 mph SSW7.7 kmh SSW 10.7 mph17.2 kmh 29.35 in993.9 mb 0.00 in0.0 mm 0.00 in0.0 mm 0.01 in0.3 mm
02:40 PM 55.9°F13.3°C 43.1°F6.2°C 62% 5.6 mph SW9.0 kmh SW 9.2 mph14.8 kmh 29.35 in993.9 mb 0.00 in0.0 mm 0.00 in0.0 mm 0.01 in0.3 mm
02:50 PM 54.7°F12.6°C 42.3°F5.7°C 63% 8.1 mph SSW13.0 kmh SSW 14.5 mph23.3 kmh 29.34 in993.6 mb 0.00 in0.0 mm 0.00 in0.0 mm 0.01 in0.3 mm
03:00 PM 56.3°F13.5°C 43.9°F6.6°C 63% 7.5 mph SW12.1 kmh SW 13.6 mph21.9 kmh 29.35 in993.9 mb 0.00 in0.0 mm 0.00 in0.0 mm 0.01 in0.3 mm
03:10 PM 56.3°F13.5°C 43.0°F6.1°C 61% 9.2 mph SSW14.8 kmh SSW 15.9 mph25.6 kmh 29.35 in993.9 mb 0.00 in0.0 mm 0.00 in0.0 mm 0.01 in0.3 mm
03:20 PM 53.8°F12.1°C 43.1°F6.2°C 67% 12.3 mph SW19.8 kmh SW 15.9 mph25.6 kmh 29.35 in993.9 mb 0.00 in0.0 mm 0.00 in0.0 mm 0.01 in0.3 mm
03:30 PM 52.3°F11.3°C 43.2°F6.2°C 71% 9.9 mph SW15.9 kmh SW 15.2 mph24.5 kmh 29.34 in993.6 mb 0.00 in0.0 mm 0.00 in0.0 mm 0.01 in0.3 mm
03:40 PM 52.5°F11.4°C 43.4°F6.3°C 71% 8.4 mph SSW13.5 kmh SSW 12.1 mph19.5 kmh 29.34 in993.6 mb 0.00 in0.0 mm 0.00 in0.0 mm 0.01 in0.3 mm
03:50 PM 53.8°F12.1°C 43.5°F6.4°C 68% 8.6 mph SSW13.8 kmh SSW 12.1 mph19.5 kmh 29.34 in993.6 mb 0.00 in0.0 mm 0.00 in0.0 mm 0.01 in0.3 mm
04:00 PM 52.7°F11.5°C 42.8°F6.0°C 69% 8.0 mph SW12.9 kmh SW 12.1 mph19.5 kmh 29.34 in993.6 mb 0.00 in0.0 mm 0.00 in0.0 mm 0.01 in0.3 mm
04:10 PM 52.0°F11.1°C 41.8°F5.4°C 68% 9.9 mph SW15.9 kmh SW 14.5 mph23.3 kmh 29.33 in993.2 mb 0.00 in0.0 mm 0.00 in0.0 mm 0.01 in0.3 mm
04:20 PM 52.9°F11.6°C 42.6°F5.9°C 68% 7.2 mph WSW11.6 kmh WSW 12.1 mph19.5 kmh 29.32 in992.9 mb 0.00 in0.0 mm 0.00 in0.0 mm 0.01 in0.3 mm
04:30 PM 52.0°F11.1°C 40.6°F4.8°C 65% 9.3 mph SW15.0 kmh SW 13.0 mph20.9 kmh 29.33 in993.2 mb 0.00 in0.0 mm 0.00 in0.0 mm 0.01 in0.3 mm
04:40 PM 51.4°F10.8°C 41.2°F5.1°C 68% 7.7 mph SW12.4 kmh SW 12.1 mph19.5 kmh 29.32 in992.9 mb 0.00 in0.0 mm 0.00 in0.0 mm 0.01 in0.3 mm
04:50 PM 50.2°F10.1°C 40.8°F4.9°C 70% 11.0 mph S17.7 kmh S 16.8 mph27.0 kmh 29.32 in992.9 mb 0.00 in0.0 mm 0.00 in0.0 mm 0.01 in0.3 mm
05:00 PM 49.1°F9.5°C 40.1°F4.5°C 71% 9.0 mph SSW14.5 kmh SSW 12.1 mph19.5 kmh 29.32 in992.9 mb 0.00 in0.0 mm 0.00 in0.0 mm 0.01 in0.3 mm
05:10 PM 48.9°F9.4°C 40.7°F4.8°C 73% 7.6 mph WSW12.2 kmh WSW 11.4 mph18.3 kmh 29.31 in992.6 mb 0.00 in0.0 mm 0.00 in0.0 mm 0.01 in0.3 mm
05:20 PM 48.7°F9.3°C 40.8°F4.9°C 74% 8.5 mph SSW13.7 kmh SSW 11.4 mph18.3 kmh 29.32 in992.9 mb 0.00 in0.0 mm 0.00 in0.0 mm 0.01 in0.3 mm
05:30 PM 48.4°F9.1°C 40.5°F4.7°C 74% 8.1 mph SW13.0 kmh SW 9.8 mph15.8 kmh 29.31 in992.6 mb 0.00 in0.0 mm 0.00 in0.0 mm 0.01 in0.3 mm
05:40 PM 48.2°F9.0°C 40.7°F4.8°C 75% 7.6 mph SW12.2 kmh SW 10.7 mph17.2 kmh 29.32 in992.9 mb 0.00 in0.0 mm 0.00 in0.0 mm 0.01 in0.3 mm
05:50 PM 48.0°F8.9°C 40.5°F4.7°C 75% 7.6 mph SW12.2 kmh SW 9.8 mph15.8 kmh 29.31 in992.6 mb 0.00 in0.0 mm 0.00 in0.0 mm 0.01 in0.3 mm
06:00 PM 47.7°F8.7°C 40.5°F4.7°C 76% 6.4 mph SSW10.3 kmh SSW 9.2 mph14.8 kmh 29.31 in992.6 mb 0.00 in0.0 mm 0.00 in0.0 mm 0.01 in0.3 mm
06:10 PM 47.3°F8.5°C 40.1°F4.5°C 76% 5.6 mph SSW9.0 kmh SSW 10.7 mph17.2 kmh 29.31 in992.6 mb 0.00 in0.0 mm 0.00 in0.0 mm 0.01 in0.3 mm
06:20 PM 47.7°F8.7°C 40.5°F4.7°C 76% 6.4 mph SW10.3 kmh SW 10.7 mph17.2 kmh 29.31 in992.6 mb 0.00 in0.0 mm 0.00 in0.0 mm 0.01 in0.3 mm
06:30 PM 48.0°F8.9°C 40.8°F4.9°C 76% 4.5 mph SW7.2 kmh SW 6.9 mph11.1 kmh 29.30 in992.2 mb 0.00 in0.0 mm 0.00 in0.0 mm 0.01 in0.3 mm
06:40 PM 48.2°F9.0°C 40.7°F4.8°C 75% 6.0 mph SSW9.7 kmh SSW 7.6 mph12.2 kmh 29.30 in992.2 mb 0.00 in0.0 mm 0.00 in0.0 mm 0.01 in0.3 mm
06:50 PM 48.2°F9.0°C 40.7°F4.8°C 75% 3.6 mph SSW5.8 kmh SSW 6.0 mph9.7 kmh 29.29 in991.9 mb 0.00 in0.0 mm 0.00 in0.0 mm 0.01 in0.3 mm
07:00 PM 48.4°F9.1°C 40.5°F4.7°C 74% 4.3 mph SW6.9 kmh SW 6.0 mph9.7 kmh 29.30 in992.2 mb 0.00 in0.0 mm 0.00 in0.0 mm 0.01 in0.3 mm
07:10 PM 48.4°F9.1°C 40.5°F4.7°C 74% 5.6 mph S9.0 kmh S 6.9 mph11.1 kmh 29.29 in991.9 mb 0.00 in0.0 mm 0.00 in0.0 mm 0.01 in0.3 mm
07:20 PM 48.6°F9.2°C 40.7°F4.8°C 74% 3.2 mph S5.1 kmh S 5.4 mph8.7 kmh 29.29 in991.9 mb 0.00 in0.0 mm 0.00 in0.0 mm 0.01 in0.3 mm
07:30 PM 48.4°F9.1°C 40.8°F4.9°C 75% 3.1 mph S5.0 kmh S 7.6 mph12.2 kmh 29.28 in991.5 mb 0.00 in0.0 mm 0.00 in0.0 mm 0.01 in0.3 mm
07:40 PM 48.4°F9.1°C 41.2°F5.1°C 76% 3.9 mph S6.3 kmh S 7.6 mph12.2 kmh 29.28 in991.5 mb 0.00 in0.0 mm 0.00 in0.0 mm 0.01 in0.3 mm
07:50 PM 48.6°F9.2°C 41.7°F5.4°C 77% 5.4 mph S8.7 kmh S 9.2 mph14.8 kmh 29.28 in991.5 mb 0.00 in0.0 mm 0.00 in0.0 mm 0.01 in0.3 mm
08:00 PM 48.2°F9.0°C 42.0°F5.6°C 79% 6.1 mph SSW9.8 kmh SSW 8.3 mph13.4 kmh 29.28 in991.5 mb 0.00 in0.0 mm 0.00 in0.0 mm 0.01 in0.3 mm
08:10 PM 47.8°F8.8°C 42.3°F5.7°C 81% 4.9 mph SSW7.9 kmh SSW 9.2 mph14.8 kmh 29.27 in991.2 mb 0.00 in0.0 mm 0.00 in0.0 mm 0.01 in0.3 mm
08:20 PM 47.5°F8.6°C 42.3°F5.7°C 82% 7.4 mph S11.9 kmh S 11.4 mph18.3 kmh 29.26 in990.9 mb 0.00 in0.0 mm 0.00 in0.0 mm 0.01 in0.3 mm
08:30 PM 47.3°F8.5°C 42.7°F5.9°C 84% 6.7 mph S10.8 kmh S 9.2 mph14.8 kmh 29.26 in990.9 mb 0.00 in0.0 mm 0.00 in0.0 mm 0.01 in0.3 mm
08:40 PM 47.1°F8.4°C 43.2°F6.2°C 86% 5.8 mph S9.3 kmh S 11.4 mph18.3 kmh 29.25 in990.5 mb 0.00 in0.0 mm 0.00 in0.0 mm 0.01 in0.3 mm
08:50 PM 47.1°F8.4°C 43.5°F6.4°C 87% 3.9 mph SSW6.3 kmh SSW 6.9 mph11.1 kmh 29.25 in990.5 mb 0.01 in0.3 mm 0.06 in1.5 mm 0.02 in0.5 mm
09:00 PM 47.1°F8.4°C 43.8°F6.6°C 88% 4.0 mph S6.4 kmh S 6.9 mph11.1 kmh 29.24 in990.2 mb 0.01 in0.3 mm 0.00 in0.0 mm 0.02 in0.5 mm
09:10 PM 47.1°F8.4°C 44.0°F6.7°C 89% 5.6 mph WSW9.0 kmh WSW 9.8 mph15.8 kmh 29.24 in990.2 mb 0.01 in0.3 mm 0.00 in0.0 mm 0.02 in0.5 mm
09:20 PM 47.1°F8.4°C 44.3°F6.8°C 90% 4.7 mph SSW7.6 kmh SSW 6.9 mph11.1 kmh 29.24 in990.2 mb 0.01 in0.3 mm 0.00 in0.0 mm 0.02 in0.5 mm
09:30 PM 47.1°F8.4°C 44.3°F6.8°C 90% 6.1 mph SSW9.8 kmh SSW 8.3 mph13.4 kmh 29.23 in989.8 mb 0.02 in0.5 mm 0.06 in1.5 mm 0.04 in1.0 mm
09:40 PM 47.1°F8.4°C 44.6°F7.0°C 91% 5.3 mph SSE8.5 kmh SSE 7.6 mph12.2 kmh 29.23 in989.8 mb 0.02 in0.5 mm 0.00 in0.0 mm 0.04 in1.0 mm
09:50 PM 46.9°F8.3°C 44.5°F6.9°C 91% 6.6 mph S10.6 kmh S 10.7 mph17.2 kmh 29.23 in989.8 mb 0.01 in0.3 mm 0.00 in0.0 mm 0.04 in1.0 mm
10:00 PM 46.9°F8.3°C 44.5°F6.9°C 91% 5.6 mph SW9.0 kmh SW 6.9 mph11.1 kmh 29.22 in989.5 mb 0.02 in0.5 mm 0.01 in0.3 mm 0.05 in1.3 mm
10:10 PM 46.9°F8.3°C 44.5°F6.9°C 91% 6.0 mph SW9.7 kmh SW 8.3 mph13.4 kmh 29.22 in989.5 mb 0.02 in0.5 mm 0.00 in0.0 mm 0.05 in1.3 mm
10:20 PM 47.1°F8.4°C 44.9°F7.2°C 92% 5.2 mph SSW8.4 kmh SSW 9.2 mph14.8 kmh 29.21 in989.2 mb 0.02 in0.5 mm 0.00 in0.0 mm 0.05 in1.3 mm
10:30 PM 47.1°F8.4°C 44.9°F7.2°C 92% 5.1 mph SW8.2 kmh SW 8.3 mph13.4 kmh 29.20 in988.8 mb 0.02 in0.5 mm 0.00 in0.0 mm 0.06 in1.5 mm
10:40 PM 47.1°F8.4°C 44.9°F7.2°C 92% 5.6 mph S9.0 kmh S 9.8 mph15.8 kmh 29.19 in988.5 mb 0.02 in0.5 mm 0.00 in0.0 mm 0.06 in1.5 mm
10:50 PM 47.3°F8.5°C 45.1°F7.3°C 92% 4.4 mph SSW7.1 kmh SSW 6.9 mph11.1 kmh 29.19 in988.5 mb 0.02 in0.5 mm 0.00 in0.0 mm 0.06 in1.5 mm
11:00 PM 47.3°F8.5°C 45.1°F7.3°C 92% 4.5 mph S7.2 kmh S 6.9 mph11.1 kmh 29.18 in988.1 mb 0.02 in0.5 mm 0.00 in0.0 mm 0.07 in1.8 mm
11:10 PM 47.5°F8.6°C 45.6°F7.6°C 93% 4.7 mph S7.6 kmh S 7.6 mph12.2 kmh 29.18 in988.1 mb 0.02 in0.5 mm 0.00 in0.0 mm 0.07 in1.8 mm
11:20 PM 47.8°F8.8°C 45.9°F7.7°C 93% 3.9 mph SSE6.3 kmh SSE 7.6 mph12.2 kmh 29.16 in987.5 mb 0.04 in1.0 mm 0.12 in3.0 mm 0.08 in2.0 mm
11:30 PM 47.8°F8.8°C 45.9°F7.7°C 93% 2.7 mph ESE4.3 kmh ESE 6.0 mph9.7 kmh 29.17 in987.8 mb 0.04 in1.0 mm 0.00 in0.0 mm 0.09 in2.3 mm
11:40 PM 47.8°F8.8°C 45.9°F7.7°C 93% 2.8 mph S4.5 kmh S 4.5 mph7.2 kmh 29.16 in987.5 mb 0.05 in1.3 mm 0.06 in1.5 mm 0.11 in2.8 mm
11:50 PM 47.8°F8.8°C 45.9°F7.7°C 93% 3.0 mph S4.8 kmh S 7.6 mph12.2 kmh 29.16 in987.5 mb 0.06 in1.5 mm 0.06 in1.5 mm 0.12 in3.0 mm